Time;durP1;ratioP1;P1;durP2;ratioP2;P2;SDS_P1;SDS_P2;PMS_P1;PMS_P2;Temp;Humidity;BMP_temperature;BMP_pressure;BME280_temperature;BME280_humidity;BME280_pressure;Samples;Min_cycle;Max_cycle;Signal;HPM_P1;HPM_P2
2024/05/06 00:02:34;;;;;;;15.88;14.27;;;10.80;99.90;;;;;;5383180;26;20039;-78
2024/05/06 00:05:19;;;;;;;15.25;13.75;;;10.80;99.90;;;;;;5386632;26;20470;-79
2024/05/06 00:08:05;;;;;;;15.63;13.52;;;10.80;99.90;;;;;;5379968;26;20015;-79
2024/05/06 00:10:50;;;;;;;15.20;13.60;;;10.80;99.90;;;;;;5375536;26;20019;-79
2024/05/06 00:13:35;;;;;;;14.65;13.15;;;10.70;99.90;;;;;;5386290;26;20076;-79
2024/05/06 00:16:23;;;;;;;14.82;12.98;;;10.70;99.90;;;;;;5379883;26;20019;-79
2024/05/06 00:19:08;;;;;;;14.75;13.13;;;10.70;99.90;;;;;;5373538;26;20014;-79
2024/05/06 00:21:53;;;;;;;14.85;13.43;;;10.70;99.90;;;;;;5341425;26;20460;-79
2024/05/06 00:24:39;;;;;;;15.07;13.48;;;10.60;99.90;;;;;;5361368;26;20424;-78
2024/05/06 00:27:26;;;;;;;15.35;13.60;;;10.50;99.90;;;;;;5361109;26;20019;-79
2024/05/06 00:30:15;;;;;;;14.52;13.13;;;10.50;99.90;;;;;;5375171;26;20019;-79
2024/05/06 00:33:04;;;;;;;14.45;13.05;;;10.50;99.90;;;;;;5383715;26;20015;-79
2024/05/06 00:35:49;;;;;;;14.50;13.00;;;10.40;99.90;;;;;;5384819;26;20015;-80
2024/05/06 00:38:34;;;;;;;14.63;13.18;;;10.30;99.90;;;;;;5388055;26;20076;-80
2024/05/06 00:41:19;;;;;;;14.82;13.32;;;10.30;99.90;;;;;;5382779;26;20098;-80
2024/05/06 00:44:05;;;;;;;14.65;13.25;;;10.30;99.90;;;;;;5380501;26;20011;-80
2024/05/06 00:46:53;;;;;;;15.00;13.40;;;10.30;99.90;;;;;;5382592;26;20015;-79
2024/05/06 00:49:41;;;;;;;13.90;12.50;;;10.30;99.90;;;;;;5384098;26;20052;-78
2024/05/06 00:52:26;;;;;;;13.07;11.77;;;10.20;99.90;;;;;;5369035;26;20020;-79
2024/05/06 00:55:13;;;;;;;14.38;12.85;;;10.10;99.90;;;;;;5367975;26;20069;-80
2024/05/06 00:58:00;;;;;;;13.98;12.45;;;10.10;99.90;;;;;;5382436;26;20089;-78
2024/05/06 01:00:46;;;;;;;14.43;13.02;;;10.10;99.90;;;;;;5374345;26;20023;-78
2024/05/06 01:03:34;;;;;;;15.52;13.05;;;10.10;99.90;;;;;;5372758;26;20099;-79
2024/05/06 01:06:21;;;;;;;13.68;12.27;;;10.10;99.90;;;;;;5382581;26;20008;-80
2024/05/06 01:09:06;;;;;;;14.48;12.98;;;10.10;99.90;;;;;;5384432;26;20498;-79
2024/05/06 01:11:51;;;;;;;13.60;12.30;;;10.10;99.90;;;;;;5377141;26;20015;-79
2024/05/06 01:14:36;;;;;;;13.27;11.98;;;10.00;99.90;;;;;;5379643;26;20039;-79
2024/05/06 01:17:21;;;;;;;13.35;11.95;;;9.90;99.90;;;;;;5375199;26;20077;-80
2024/05/06 01:20:07;;;;;;;11.32;10.30;;;9.90;99.90;;;;;;5379774;26;20006;-79
2024/05/06 01:22:59;;;;;;;12.15;10.85;;;9.90;99.90;;;;;;5370615;26;20014;-79
2024/05/06 01:25:44;;;;;;;10.77;9.68;;;9.80;99.90;;;;;;5372439;26;20076;-79
2024/05/06 01:28:29;;;;;;;11.02;10.02;;;9.80;99.90;;;;;;5374624;26;20078;-79
2024/05/06 01:31:14;;;;;;;;;;;9.80;99.90;;;;;;5372319;26;20078;-80
2024/05/06 01:33:59;;;;;;;10.60;9.60;;;9.80;99.90;;;;;;5376666;26;20282;-78
2024/05/06 01:36:44;;;;;;;11.18;10.20;;;9.80;99.90;;;;;;5369020;26;20082;-79
2024/05/06 01:39:32;;;;;;;11.50;10.43;;;9.70;99.90;;;;;;5373049;26;20073;-79
2024/05/06 01:42:17;;;;;;;13.13;11.93;;;9.60;99.90;;;;;;5385269;26;20448;-79
2024/05/06 01:45:02;;;;;;;14.23;12.93;;;9.50;99.90;;;;;;5369958;26;20089;-79
2024/05/06 01:47:47;;;;;;;13.90;12.60;;;9.40;99.90;;;;;;5369830;26;20351;-79
2024/05/06 01:50:32;;;;;;;14.15;12.85;;;9.30;99.90;;;;;;5379233;26;20111;-79
2024/05/06 01:53:17;;;;;;;14.77;13.38;;;9.40;99.90;;;;;;5383282;26;20088;-78
2024/05/06 01:56:05;;;;;;;15.80;14.23;;;9.30;99.90;;;;;;5376934;26;20058;-79
2024/05/06 01:58:51;;;;;;;15.55;14.02;;;9.30;99.90;;;;;;5384664;26;20023;-79
2024/05/06 02:01:36;;;;;;;15.93;14.43;;;9.30;99.90;;;;;;5392381;26;20018;-79
2024/05/06 02:04:21;;;;;;;14.82;13.35;;;9.30;99.90;;;;;;5381407;26;20011;-79
2024/05/06 02:07:06;;;;;;;13.60;12.30;;;9.40;99.90;;;;;;5387429;26;20018;-80
2024/05/06 02:09:51;;;;;;;13.20;11.85;;;9.30;99.90;;;;;;5381625;26;20515;-79
2024/05/06 02:12:39;;;;;;;11.65;10.55;;;9.30;99.90;;;;;;5378384;26;20023;-79
2024/05/06 02:15:24;;;;;;;11.70;10.50;;;9.20;99.90;;;;;;5383351;26;20047;-79
2024/05/06 02:18:09;;;;;;;11.77;10.60;;;9.20;99.90;;;;;;5385302;26;20034;-79
2024/05/06 02:20:57;;;;;;;11.52;10.32;;;9.20;99.90;;;;;;5380199;26;20078;-79
2024/05/06 02:23:41;;;;;;;11.57;10.52;;;9.20;99.90;;;;;;5380796;26;20023;-79
2024/05/06 02:26:27;;;;;;;11.45;10.40;;;9.20;99.90;;;;;;5382851;26;20076;-78
2024/05/06 02:29:14;;;;;;;11.75;10.65;;;9.20;99.90;;;;;;5387414;26;20576;-79
2024/05/06 02:32:00;;;;;;;12.27;11.07;;;9.20;99.90;;;;;;5381469;26;20422;-79
2024/05/06 02:34:45;;;;;;;12.95;11.68;;;9.10;99.90;;;;;;5389955;26;20018;-79
2024/05/06 02:37:29;;;;;;;12.70;11.60;;;9.10;99.90;;;;;;5384675;26;20018;-79
2024/05/06 02:40:14;;;;;;;13.32;12.13;;;9.10;99.90;;;;;;5379215;26;20162;-78
2024/05/06 02:42:59;;;;;;;13.07;11.77;;;9.10;99.90;;;;;;5375905;26;20047;-79
2024/05/06 02:45:47;;;;;;;13.23;11.98;;;9.10;99.90;;;;;;5374802;26;20092;-79
2024/05/06 02:48:37;;;;;;;13.43;12.23;;;9.00;99.90;;;;;;5378177;26;20011;-78
2024/05/06 02:51:23;;;;;;;13.13;11.93;;;9.00;99.90;;;;;;5377700;26;20078;-80
2024/05/06 02:54:08;;;;;;;13.70;12.40;;;9.10;99.90;;;;;;5386517;26;20028;-78
2024/05/06 02:56:53;;;;;;;12.95;11.68;;;9.00;99.90;;;;;;5374995;26;20424;-79
2024/05/06 02:59:40;;;;;;;13.05;11.85;;;9.00;99.90;;;;;;5386287;26;20081;-80
2024/05/06 03:02:28;;;;;;;13.15;11.93;;;9.00;99.90;;;;;;5383468;26;20043;-79
2024/05/06 03:05:16;;;;;;;13.73;12.43;;;8.90;99.90;;;;;;5384101;26;20023;-79
2024/05/06 03:08:01;;;;;;;13.73;12.45;;;8.90;99.90;;;;;;5382908;26;20066;-80
2024/05/06 03:10:46;;;;;;;12.93;11.63;;;8.80;99.90;;;;;;5374213;26;20076;-79
2024/05/06 03:13:31;;;;;;;13.35;12.15;;;8.70;99.90;;;;;;5380391;26;20022;-79
2024/05/06 03:16:16;;;;;;;13.43;12.15;;;8.70;99.90;;;;;;5381614;26;20023;-79
2024/05/06 03:19:07;;;;;;;14.45;13.15;;;8.60;99.90;;;;;;5370696;26;20069;-79
2024/05/06 03:21:52;;;;;;;15.35;13.90;;;8.60;99.90;;;;;;5385054;26;20123;-79
2024/05/06 03:24:37;;;;;;;17.42;15.73;;;8.50;99.90;;;;;;5378104;26;20078;-80
2024/05/06 03:27:25;;;;;;;17.50;15.80;;;8.50;99.90;;;;;;5387762;26;20010;-79
2024/05/06 03:30:11;;;;;;;16.40;14.70;;;8.50;99.90;;;;;;5381461;26;20018;-80
2024/05/06 03:32:56;;;;;;;17.77;15.93;;;8.50;99.90;;;;;;5384008;26;20114;-79
2024/05/06 03:35:44;;;;;;;17.00;15.25;;;8.50;99.90;;;;;;5385014;26;20073;-77
2024/05/06 03:38:28;;;;;;;16.10;14.45;;;8.40;99.90;;;;;;5376232;26;20022;-78
2024/05/06 03:41:13;;;;;;;17.25;15.45;;;8.30;99.90;;;;;;5380593;26;20014;-78
2024/05/06 03:43:59;;;;;;;16.65;15.00;;;8.30;99.90;;;;;;5384051;26;20077;-78
2024/05/06 03:46:44;;;;;;;16.75;14.60;;;8.20;99.90;;;;;;5384741;26;20019;-78
2024/05/06 03:49:28;;;;;;;16.58;14.95;;;8.10;99.90;;;;;;5380003;26;20022;-78
2024/05/06 03:52:16;;;;;;;16.67;14.98;;;8.00;99.90;;;;;;5381303;26;20026;-79
2024/05/06 03:55:01;;;;;;;17.13;15.43;;;7.90;99.90;;;;;;5382795;26;20008;-79
2024/05/06 03:57:46;;;;;;;17.52;15.80;;;7.90;99.90;;;;;;5378968;26;20014;-79
2024/05/06 04:00:31;;;;;;;18.35;16.33;;;7.80;99.90;;;;;;5380230;26;20019;-79
2024/05/06 04:03:16;;;;;;;17.25;15.55;;;7.80;99.90;;;;;;5382736;26;20359;-79
2024/05/06 04:06:01;;;;;;;18.75;16.85;;;7.80;99.90;;;;;;5382012;26;20498;-79
2024/05/06 04:08:50;;;;;;;18.00;16.10;;;7.70;99.90;;;;;;5380830;26;20019;-79
2024/05/06 04:11:35;;;;;;;18.02;16.33;;;7.70;99.90;;;;;;5377381;26;20082;-79
2024/05/06 04:14:20;;;;;;;18.13;16.33;;;7.80;99.90;;;;;;5379824;26;20074;-79
2024/05/06 04:17:05;;;;;;;17.75;15.95;;;7.80;99.90;;;;;;5368156;26;20023;-78
2024/05/06 04:19:50;;;;;;;17.60;15.88;;;7.90;99.90;;;;;;5383219;26;20080;-77
2024/05/06 04:22:36;;;;;;;18.90;16.92;;;8.00;99.90;;;;;;5387144;26;20019;-79
2024/05/06 04:28:27;;;;;;;18.20;16.40;;;8.10;99.90;;;;;;5385152;26;20023;-78
2024/05/06 04:31:13;;;;;;;19.00;17.00;;;8.20;99.90;;;;;;5375603;26;20579;-78
2024/05/06 04:33:58;;;;;;;17.38;15.52;;;8.30;99.90;;;;;;5386370;26;20019;-79
2024/05/06 04:36:46;;;;;;;18.85;16.77;;;8.40;99.90;;;;;;5382768;26;20019;-79
2024/05/06 04:39:31;;;;;;;18.63;16.75;;;8.50;99.90;;;;;;5377080;26;20027;-79
2024/05/06 04:42:19;;;;;;;18.90;17.05;;;8.60;99.90;;;;;;5386168;26;20089;-78
2024/05/06 04:45:10;;;;;;;18.48;16.67;;;8.70;99.90;;;;;;5382783;26;20088;-78
2024/05/06 04:47:55;;;;;;;18.23;16.42;;;8.80;99.90;;;;;;5373087;26;20428;-78
2024/05/06 04:50:42;;;;;;;20.50;18.30;;;8.80;99.90;;;;;;5372766;26;20023;-78
2024/05/06 04:53:27;;;;;;;19.92;17.92;;;8.80;99.90;;;;;;5374290;26;20019;-79
2024/05/06 04:56:12;;;;;;;20.25;18.25;;;8.80;99.90;;;;;;5368758;26;20015;-79
2024/05/06 04:59:02;;;;;;;20.55;18.45;;;8.90;99.90;;;;;;5367153;26;20747;-79
2024/05/06 05:01:52;;;;;;;21.70;19.45;;;9.00;99.90;;;;;;5375656;26;20085;-79
2024/05/06 05:04:43;;;;;;;21.77;19.60;;;9.20;99.90;;;;;;5361033;26;20016;-79
2024/05/06 05:07:31;;;;;;;22.10;19.80;;;9.20;99.90;;;;;;5368414;26;20015;-78
2024/05/06 05:10:16;;;;;;;23.38;20.88;;;9.30;99.90;;;;;;5366088;26;20018;-79
2024/05/06 05:13:01;;;;;;;;;;;9.20;99.90;;;;;;5368514;26;20081;-79
2024/05/06 05:15:49;;;;;;;23.83;21.33;;;9.20;99.90;;;;;;5371661;26;20314;-79
2024/05/06 05:18:37;;;;;;;25.02;21.40;;;9.20;99.90;;;;;;5365703;26;20086;-79
2024/05/06 05:21:26;;;;;;;24.10;21.50;;;9.30;99.90;;;;;;5372001;26;20085;-79
2024/05/06 05:24:14;;;;;;;23.98;21.48;;;9.30;99.90;;;;;;5371699;26;20022;-79
2024/05/06 05:27:02;;;;;;;24.98;22.27;;;9.40;99.90;;;;;;5365899;26;20478;-78
2024/05/06 05:29:47;;;;;;;23.52;21.23;;;9.50;99.90;;;;;;5375346;26;20023;-80
2024/05/06 05:32:34;;;;;;;24.92;22.23;;;9.60;99.90;;;;;;5368476;26;20077;-79
2024/05/06 05:35:19;;;;;;;26.27;22.27;;;9.70;99.90;;;;;;5374899;26;20085;-79
2024/05/06 05:38:05;;;;;;;25.85;21.85;;;9.80;99.90;;;;;;5371255;26;20023;-79
2024/05/06 05:40:49;;;;;;;24.02;21.65;;;9.90;99.90;;;;;;5381296;26;20479;-79
2024/05/06 05:43:35;;;;;;;24.83;21.80;;;10.00;99.90;;;;;;5369590;26;20007;-78
2024/05/06 05:46:20;;;;;;;23.38;21.02;;;10.10;99.90;;;;;;5369565;26;20291;-79
2024/05/06 05:49:07;;;;;;;23.42;21.02;;;10.20;99.90;;;;;;5383228;26;20506;-78
2024/05/06 05:51:52;;;;;;;25.00;22.50;;;10.30;99.90;;;;;;5372350;26;20356;-79
2024/05/06 05:54:40;;;;;;;24.60;21.90;;;10.40;99.90;;;;;;5378977;26;20014;-78
2024/05/06 05:57:25;;;;;;;24.33;20.65;;;10.50;99.90;;;;;;5377832;26;20427;-78
2024/05/06 06:00:10;;;;;;;25.58;22.33;;;10.70;99.90;;;;;;5372005;26;20073;-78
2024/05/06 06:02:55;;;;;;;22.85;20.45;;;10.90;99.90;;;;;;5372320;26;20018;-79
2024/05/06 06:05:44;;;;;;;21.58;19.38;;;11.00;99.90;;;;;;5379120;26;20015;-79
2024/05/06 06:08:39;;;;;;;21.88;19.67;;;11.00;99.90;;;;;;5385901;26;20355;-77
2024/05/06 06:11:25;;;;;;;23.38;21.05;;;11.10;99.90;;;;;;5382823;26;20031;-78
2024/05/06 06:14:15;;;;;;;22.67;20.27;;;11.10;99.90;;;;;;5386285;26;20109;-79
2024/05/06 06:17:01;;;;;;;21.23;19.13;;;11.20;99.90;;;;;;5370623;26;20083;-78
2024/05/06 06:19:46;;;;;;;;;;;11.40;99.90;;;;;;5378701;26;20857;-80
2024/05/06 06:22:34;;;;;;;24.65;20.30;;;11.60;99.90;;;;;;5391634;26;19931;-79
2024/05/06 06:25:19;;;;;;;22.95;20.73;;;11.80;99.90;;;;;;5378855;26;20541;-79
2024/05/06 06:28:05;;;;;;;22.60;20.30;;;12.00;99.90;;;;;;5374512;26;20064;-79
2024/05/06 06:30:50;;;;;;;21.70;19.40;;;12.10;99.90;;;;;;5368567;26;20043;-80
2024/05/06 06:33:35;;;;;;;22.63;20.13;;;12.40;99.90;;;;;;5379093;26;20019;-80
2024/05/06 06:36:20;;;;;;;21.38;17.90;;;12.50;99.90;;;;;;5383269;26;20023;-78
2024/05/06 06:39:07;;;;;;;17.25;15.48;;;12.70;99.90;;;;;;5386293;26;20061;-78
2024/05/06 06:41:57;;;;;;;17.02;15.32;;;12.90;99.90;;;;;;5387988;26;20464;-78
2024/05/06 06:44:42;;;;;;;15.70;14.15;;;13.00;99.90;;;;;;5369959;26;20047;-78
2024/05/06 06:47:27;;;;;;;16.15;14.45;;;13.20;99.90;;;;;;5373764;26;20491;-78
2024/05/06 06:50:12;;;;;;;14.73;13.23;;;13.30;99.90;;;;;;5363524;26;20085;-78
2024/05/06 06:52:57;;;;;;;13.95;12.50;;;13.40;99.90;;;;;;5380715;26;20044;-78
2024/05/06 06:55:44;;;;;;;14.50;12.30;;;13.50;99.90;;;;;;5368664;26;20464;-78
2024/05/06 06:58:29;;;;;;;14.75;12.48;;;13.60;99.90;;;;;;5382165;26;20022;-78
2024/05/06 07:01:15;;;;;;;13.60;12.20;;;13.70;99.90;;;;;;5380035;26;20019;-78
2024/05/06 07:03:59;;;;;;;;;;;13.80;99.90;;;;;;5382753;26;20024;-77
2024/05/06 07:06:44;;;;;;;12.60;11.18;;;13.90;99.90;;;;;;5391530;26;19933;-78
2024/05/06 07:09:29;;;;;;;12.40;10.77;;;13.90;99.90;;;;;;5353021;26;20528;-79
2024/05/06 07:12:17;;;;;;;12.38;10.93;;;14.10;99.90;;;;;;5374490;26;20042;-78
2024/05/06 07:15:03;;;;;;;12.85;11.55;;;14.20;99.90;;;;;;5375494;26;20503;-78
2024/05/06 07:17:48;;;;;;;12.77;11.48;;;14.30;99.90;;;;;;5372177;26;20020;-79
2024/05/06 07:20:33;;;;;;;13.13;10.88;;;14.50;99.90;;;;;;5370927;26;20078;-78
2024/05/06 07:23:18;;;;;;;13.90;11.60;;;14.50;99.90;;;;;;5370523;26;20015;-78
2024/05/06 07:26:04;;;;;;;12.70;10.98;;;14.60;99.90;;;;;;5385255;26;20074;-78
2024/05/06 07:28:54;;;;;;;;;;;14.60;99.90;;;;;;5383252;26;20019;-78
2024/05/06 07:31:38;;;;;;;11.73;10.18;;;14.70;99.90;;;;;;5368316;26;19932;-80
2024/05/06 07:34:23;;;;;;;10.82;9.80;;;14.90;99.90;;;;;;5369485;26;20073;-80
2024/05/06 07:37:08;;;;;;;10.80;9.70;;;15.10;99.90;;;;;;5377078;26;20014;-79
2024/05/06 07:39:53;;;;;;;11.63;9.98;;;15.30;99.90;;;;;;5368753;26;20015;-79
2024/05/06 07:42:39;;;;;;;9.48;8.57;;;15.30;99.90;;;;;;5376978;26;20010;-80
2024/05/06 07:45:26;;;;;;;9.27;8.35;;;15.30;99.90;;;;;;5371860;26;20092;-79
2024/05/06 07:48:14;;;;;;;9.50;8.43;;;15.40;99.90;;;;;;5375219;26;20098;-79
2024/05/06 07:50:59;;;;;;;12.20;8.57;;;15.50;99.90;;;;;;5377777;26;20015;-79
2024/05/06 07:53:44;;;;;;;9.57;8.57;;;15.50;99.90;;;;;;5372350;26;20467;-80
2024/05/06 07:56:29;;;;;;;9.80;8.82;;;15.50;99.90;;;;;;5376718;26;20015;-79
2024/05/06 07:59:14;;;;;;;;;;;15.60;99.90;;;;;;5372601;26;20850;-79
2024/05/06 08:02:02;;;;;;;10.25;8.63;;;15.70;99.90;;;;;;5383509;26;19932;-80
2024/05/06 08:04:47;;;;;;;9.75;8.10;;;15.90;99.90;;;;;;5378103;26;20041;-78
2024/05/06 08:07:32;;;;;;;9.20;8.27;;;15.90;99.90;;;;;;5382093;26;20459;-79
2024/05/06 08:10:17;;;;;;;8.70;7.78;;;16.20;99.90;;;;;;5371848;26;20027;-79
2024/05/06 08:13:08;;;;;;;9.35;7.57;;;16.40;99.90;;;;;;5377669;26;20039;-81
2024/05/06 08:15:53;;;;;;;8.82;7.93;;;16.50;99.90;;;;;;5366465;26;20569;-80
2024/05/06 08:18:41;;;;;;;9.10;8.23;;;16.50;99.90;;;;;;5365289;26;20023;-80
2024/05/06 08:21:31;;;;;;;8.68;7.72;;;16.60;99.90;;;;;;5374882;26;20092;-80
2024/05/06 08:24:19;;;;;;;9.50;8.30;;;16.80;99.90;;;;;;5376243;26;20081;-80
2024/05/06 08:27:04;;;;;;;8.88;7.60;;;16.80;99.90;;;;;;5384016;26;20084;-79
2024/05/06 08:29:49;;;;;;;;;;;16.90;99.90;;;;;;5375398;26;20029;-79
2024/05/06 08:32:36;;;;;;;7.45;6.75;;;17.00;99.90;;;;;;5371222;26;19996;-79
2024/05/06 08:35:23;;;;;;;10.68;7.38;;;17.20;99.90;;;;;;5379860;26;20031;-79
2024/05/06 08:38:09;;;;;;;8.02;7.22;;;17.30;99.90;;;;;;5370860;26;20010;-80
2024/05/06 08:40:54;;;;;;;7.93;6.70;;;17.30;99.90;;;;;;5379589;26;20582;-80
2024/05/06 08:43:41;;;;;;;6.20;5.50;;;17.20;99.90;;;;;;5379919;26;20044;-77
2024/05/06 08:46:27;;;;;;;6.28;5.70;;;17.30;99.90;;;;;;5367061;26;20375;-77
2024/05/06 08:49:15;;;;;;;7.32;4.80;;;17.40;99.90;;;;;;5375985;26;20082;-77
2024/05/06 08:52:03;;;;;;;5.22;4.72;;;17.50;99.90;;;;;;5370425;26;20868;-77
2024/05/06 08:54:49;;;;;;;7.97;5.25;;;17.70;99.90;;;;;;5376612;26;20123;-77
2024/05/06 08:57:35;;;;;;;5.10;4.60;;;17.80;99.90;;;;;;5382182;26;20444;-76
2024/05/06 09:00:26;;;;;;;6.00;5.50;;;17.90;99.90;;;;;;5379583;26;20015;-78
2024/05/06 09:03:11;;;;;;;6.40;5.70;;;17.90;99.90;;;;;;5380378;26;20009;-78
2024/05/06 09:05:56;;;;;;;5.10;4.60;;;17.90;99.90;;;;;;5377182;26;20102;-78
2024/05/06 09:08:44;;;;;;;5.15;4.65;;;18.00;99.90;;;;;;5369772;26;20019;-78
2024/05/06 09:11:35;;;;;;;4.50;4.07;;;18.10;99.90;;;;;;5377179;26;20045;-79
2024/05/06 09:14:20;;;;;;;5.07;4.30;;;18.20;99.90;;;;;;5382135;26;20018;-79
2024/05/06 09:17:05;;;;;;;6.07;4.65;;;18.30;99.90;;;;;;5376478;26;20063;-79
2024/05/06 09:19:50;;;;;;;5.38;4.63;;;18.50;99.90;;;;;;5372191;26;20091;-79
2024/05/06 09:22:35;;;;;;;8.25;4.80;;;18.80;99.90;;;;;;5374746;26;20019;-79
2024/05/06 09:25:23;;;;;;;6.57;5.50;;;18.80;99.90;;;;;;5381760;26;20027;-79
2024/05/06 09:28:12;;;;;;;5.13;4.60;;;18.70;99.90;;;;;;5391728;26;20530;-78
2024/05/06 09:30:57;;;;;;;5.40;3.63;;;18.60;99.90;;;;;;5381579;26;20014;-78
2024/05/06 09:33:53;;;;;;;5.32;4.57;;;18.70;99.90;;;;;;5362800;26;20527;-79
2024/05/06 09:36:44;;;;;;;5.50;4.15;;;19.00;99.90;;;;;;5381756;26;20015;-79
2024/05/06 09:39:39;;;;;;;4.20;3.50;;;19.00;99.90;;;;;;5373159;26;20064;-79
2024/05/06 09:42:33;;;;;;;3.97;2.92;;;19.00;99.00;;;;;;5367425;26;20256;-78
2024/05/06 09:45:22;;;;;;;4.18;3.03;;;18.90;99.30;;;;;;5378977;26;20084;-78
2024/05/06 09:48:08;;;;;;;4.75;2.60;;;19.20;97.70;;;;;;5370646;26;20018;-78
2024/05/06 09:50:54;;;;;;;2.67;2.42;;;19.20;98.30;;;;;;5379006;26;20019;-78
2024/05/06 09:53:40;;;;;;;4.07;2.50;;;19.40;98.10;;;;;;5372589;26;20019;-78
2024/05/06 09:56:29;;;;;;;2.53;1.80;;;19.40;97.30;;;;;;5365974;26;20081;-79
2024/05/06 09:59:18;;;;;;;4.47;2.95;;;19.40;96.90;;;;;;5395480;26;20034;-79
2024/05/06 10:02:08;;;;;;;3.03;2.00;;;19.40;97.10;;;;;;5375983;26;20018;-79
2024/05/06 10:04:54;;;;;;;2.65;2.10;;;19.40;95.80;;;;;;5375122;26;20109;-79
2024/05/06 10:07:40;;;;;;;3.40;2.20;;;19.20;96.20;;;;;;5377611;26;20019;-79
2024/05/06 10:10:26;;;;;;;3.47;2.70;;;19.20;96.90;;;;;;5378581;26;20085;-79
2024/05/06 10:13:11;;;;;;;2.92;2.30;;;19.20;96.30;;;;;;5375495;26;20019;-79
2024/05/06 10:15:59;;;;;;;3.38;2.40;;;19.00;96.00;;;;;;5377484;26;20026;-79
2024/05/06 10:18:44;;;;;;;4.32;2.40;;;19.00;96.20;;;;;;5370730;26;20048;-78
2024/05/06 10:21:39;;;;;;;3.10;2.53;;;19.10;96.40;;;;;;5374748;26;20015;-78
2024/05/06 10:24:24;;;;;;;4.78;2.33;;;19.40;97.10;;;;;;5377047;26;20359;-79
2024/05/06 10:27:09;;;;;;;3.58;2.42;;;19.70;95.90;;;;;;5373504;26;20080;-78
2024/05/06 10:29:54;;;;;;;3.50;2.75;;;19.70;95.80;;;;;;5367211;26;20019;-79
2024/05/06 10:32:42;;;;;;;3.25;2.30;;;19.70;96.10;;;;;;5365780;26;20397;-79
2024/05/06 10:35:27;;;;;;;5.28;2.38;;;19.90;95.80;;;;;;5355574;26;20722;-79
2024/05/06 10:38:14;;;;;;;;;;;19.90;94.40;;;;;;5375112;26;20410;-79
2024/05/06 10:41:00;;;;;;;4.50;3.40;;;20.00;95.30;;;;;;5372476;26;19994;-79
2024/05/06 10:43:47;;;;;;;5.10;3.85;;;20.20;95.50;;;;;;5372890;26;20015;-79
2024/05/06 10:46:34;;;;;;;2.45;2.13;;;20.20;95.80;;;;;;5376512;26;20023;-79
2024/05/06 10:49:22;;;;;;;3.28;1.98;;;20.10;94.20;;;;;;5383133;26;20092;-79
2024/05/06 10:52:09;;;;;;;4.38;2.50;;;20.20;94.60;;;;;;5379354;26;20923;-79
2024/05/06 10:55:01;;;;;;;4.72;2.70;;;20.10;94.90;;;;;;5367892;26;20064;-80
2024/05/06 10:57:46;;;;;;;2.28;2.08;;;20.00;95.10;;;;;;5361278;26;20078;-79
2024/05/06 11:00:31;;;;;;;2.88;2.60;;;20.40;95.10;;;;;;5375555;26;20094;-79
2024/05/06 11:03:18;;;;;;;3.70;2.25;;;20.60;95.10;;;;;;5386346;26;20023;-79
2024/05/06 11:06:06;;;;;;;2.72;2.30;;;20.70;94.40;;;;;;5375686;26;20030;-78
2024/05/06 11:09:03;;;;;;;3.63;2.38;;;20.80;94.40;;;;;;5356310;26;20073;-78
2024/05/06 11:11:52;;;;;;;3.53;2.63;;;21.10;94.40;;;;;;5359360;26;20011;-78
2024/05/06 11:14:37;;;;;;;3.63;3.22;;;21.40;93.60;;;;;;5365302;26;20550;-78
2024/05/06 11:17:22;;;;;;;3.53;3.20;;;21.40;93.60;;;;;;5361596;26;20015;-78
2024/05/06 11:20:08;;;;;;;3.75;3.45;;;21.40;94.00;;;;;;5359341;26;20108;-78
2024/05/06 11:22:56;;;;;;;4.82;3.53;;;21.30;94.10;;;;;;5363131;26;20015;-78
2024/05/06 11:25:44;;;;;;;5.53;3.22;;;21.40;93.40;;;;;;5359184;26;20081;-78
2024/05/06 11:28:28;;;;;;;4.82;3.33;;;21.30;93.80;;;;;;5366738;26;20074;-78
2024/05/06 11:31:13;;;;;;;4.40;3.60;;;21.20;93.90;;;;;;5370574;26;20078;-78
2024/05/06 11:33:58;;;;;;;;;;;21.20;93.80;;;;;;5352765;26;20027;-78
2024/05/06 11:36:43;;;;;;;4.32;3.92;;;20.90;94.50;;;;;;5358668;26;20395;-78
2024/05/06 11:39:31;;;;;;;4.55;3.50;;;20.70;94.00;;;;;;5368577;26;20040;-78
2024/05/06 11:42:16;;;;;;;3.03;2.72;;;20.50;94.00;;;;;;5364520;26;20022;-78
2024/05/06 11:45:01;;;;;;;;;;;20.50;93.10;;;;;;5352785;26;20512;-77
2024/05/06 11:47:46;;;;;;;3.53;3.20;;;20.60;93.30;;;;;;5368775;26;19956;-77
2024/05/06 11:50:31;;;;;;;;;;;20.60;92.80;;;;;;5365994;26;20019;-76
2024/05/06 11:53:15;;;;;;;5.25;3.67;;;20.70;93.40;;;;;;5370401;26;20418;-76
2024/05/06 11:56:03;;;;;;;7.47;3.47;;;21.00;93.40;;;;;;5353370;26;20095;-79
2024/05/06 11:58:48;;;;;;;4.53;3.78;;;21.10;93.00;;;;;;5360420;26;20019;-77
2024/05/06 12:01:33;;;;;;;;;;;21.10;94.00;;;;;;5370679;26;20089;-76
2024/05/06 12:04:18;;;;;;;5.03;2.40;;;20.90;92.90;;;;;;5355368;26;19932;-77
2024/05/06 12:07:03;;;;;;;;;;;20.90;93.60;;;;;;5370689;26;20522;-78
2024/05/06 12:09:52;;;;;;;3.13;2.83;;;21.00;93.00;;;;;;5352911;26;20016;-79
2024/05/06 12:12:39;;;;;;;3.90;3.50;;;21.00;92.80;;;;;;5351948;26;20468;-78
2024/05/06 12:15:24;;;;;;;4.25;3.38;;;21.10;92.70;;;;;;5358984;26;20127;-77
2024/05/06 12:18:09;;;;;;;3.33;3.03;;;21.00;92.50;;;;;;5347768;26;20697;-78
2024/05/06 12:20:54;;;;;;;4.43;3.92;;;21.00;92.10;;;;;;5357356;26;20008;-76
2024/05/06 12:23:40;;;;;;;4.38;3.40;;;21.10;92.90;;;;;;5369802;26;20014;-77
2024/05/06 12:26:25;;;;;;;3.28;2.95;;;21.00;92.40;;;;;;5356063;26;20004;-78
2024/05/06 12:29:13;;;;;;;3.35;2.30;;;21.10;93.40;;;;;;5357928;26;20022;-76
2024/05/06 12:31:58;;;;;;;4.47;2.63;;;21.20;92.50;;;;;;5352396;26;20011;-77
2024/05/06 12:34:42;;;;;;;;;;;21.20;92.90;;;;;;5361477;26;20011;-78
2024/05/06 12:37:28;;;;;;;3.43;2.80;;;21.20;93.50;;;;;;5361295;26;19933;-77
2024/05/06 12:40:13;;;;;;;2.55;2.28;;;21.20;92.50;;;;;;5367160;26;20102;-77
2024/05/06 12:42:58;;;;;;;4.47;3.50;;;21.20;92.70;;;;;;5361639;26;20019;-77
2024/05/06 12:45:46;;;;;;;3.67;3.28;;;21.20;92.30;;;;;;5362115;26;20411;-77
2024/05/06 12:48:30;;;;;;;4.40;2.95;;;21.20;92.20;;;;;;5349927;26;20012;-77
2024/05/06 12:51:15;;;;;;;2.03;1.77;;;21.20;92.00;;;;;;5346084;26;20012;-77
2024/05/06 12:54:00;;;;;;;2.65;1.70;;;20.90;90.80;;;;;;5362319;26;20079;-77
2024/05/06 12:56:45;;;;;;;;;;;20.90;91.10;;;;;;5347373;26;20369;-77
2024/05/06 12:59:30;;;;;;;3.15;2.30;;;20.90;91.00;;;;;;5370954;26;19953;-77
2024/05/06 13:02:18;;;;;;;3.03;2.13;;;21.10;91.20;;;;;;5369905;26;20015;-77
2024/05/06 13:05:06;;;;;;;2.30;2.10;;;21.20;91.90;;;;;;5350618;26;20023;-77
2024/05/06 13:07:51;;;;;;;2.95;1.80;;;21.30;91.40;;;;;;5364021;26;20425;-77
2024/05/06 13:10:36;;;;;;;;;;;21.60;92.50;;;;;;5363615;26;20083;-77
2024/05/06 13:13:20;;;;;;;2.83;1.70;;;21.90;91.30;;;;;;5343299;26;19972;-77
2024/05/06 13:16:05;;;;;;;;;;;22.10;91.40;;;;;;5352126;26;20039;-77
2024/05/06 13:18:53;;;;;;;1.77;1.00;;;22.20;91.10;;;;;;5348076;26;20448;-77
2024/05/06 13:21:38;;;;;;;2.42;0.95;;;22.00;91.00;;;;;;5355881;26;20027;-77
2024/05/06 13:24:23;;;;;;;1.60;1.05;;;21.80;90.50;;;;;;5355627;26;20031;-77
2024/05/06 13:27:07;;;;;;;;;;;21.80;90.20;;;;;;5346618;26;20011;-77
2024/05/06 13:29:52;;;;;;;3.42;1.40;;;21.70;90.40;;;;;;5354845;26;20277;-77
2024/05/06 13:32:37;;;;;;;2.15;1.17;;;21.40;90.10;;;;;;5345781;26;20048;-77
2024/05/06 13:35:25;;;;;;;2.28;1.30;;;21.20;90.70;;;;;;5357475;26;20052;-77
2024/05/06 13:38:10;;;;;;;2.42;0.93;;;21.00;90.40;;;;;;5368064;26;20077;-78
2024/05/06 13:40:55;;;;;;;1.70;1.10;;;20.90;91.00;;;;;;5366502;26;20016;-77
2024/05/06 13:43:39;;;;;;;1.92;0.80;;;20.90;90.60;;;;;;5355086;26;20058;-77
2024/05/06 13:46:27;;;;;;;1.10;0.90;;;20.90;91.70;;;;;;5374084;26;20015;-77
2024/05/06 13:49:13;;;;;;;2.78;1.20;;;21.00;90.30;;;;;;5355249;26;20011;-77
2024/05/06 13:52:00;;;;;;;2.53;1.30;;;20.80;90.30;;;;;;5363488;26;20019;-77
2024/05/06 13:54:45;;;;;;;1.70;1.10;;;20.80;90.00;;;;;;5362438;26;20011;-78
2024/05/06 13:57:30;;;;;;;;;;;21.00;90.30;;;;;;5347016;26;20111;-77
2024/05/06 14:00:15;;;;;;;3.05;1.45;;;21.20;90.40;;;;;;5371528;26;19936;-77
2024/05/06 14:03:00;;;;;;;;;;;21.40;90.70;;;;;;5357522;26;20011;-77
2024/05/06 14:05:45;;;;;;;2.22;1.17;;;21.40;90.40;;;;;;5370268;26;20004;-77
2024/05/06 14:08:33;;;;;;;1.75;1.30;;;21.30;90.00;;;;;;5372231;26;20085;-77
2024/05/06 14:11:18;;;;;;;2.20;1.25;;;21.20;90.00;;;;;;5356417;26;20020;-77
2024/05/06 14:14:03;;;;;;;;;;;21.20;90.70;;;;;;5368018;26;20018;-77
2024/05/06 14:16:48;;;;;;;5.97;1.42;;;21.10;90.20;;;;;;5369092;26;19941;-77
2024/05/06 14:19:33;;;;;;;1.92;1.58;;;21.00;91.10;;;;;;5360028;26;20011;-77
2024/05/06 14:22:17;;;;;;;;;;;21.20;90.60;;;;;;5354371;26;20011;-77
2024/05/06 14:25:05;;;;;;;2.05;1.70;;;21.10;90.40;;;;;;5351369;26;19933;-77
2024/05/06 14:27:50;;;;;;;2.17;1.50;;;20.90;90.60;;;;;;5353563;26;20023;-77